Terminal Aerodrome Forecast
Issued by NWS

Home | Current Version | Previous Version | Text Only | Print | Product List | Glossary On
Versions: 1 2 3 4 5 6 7 8 9 10 11 12 13 14 15 16
000
FTUS43 KSGF 031100
TAFJLN
TAF
KJLN 031133Z 0312/0412 VRB03KT P6SM VCSH BKN005
      TEMPO 0312/0314 BKN010
     FM031400 36008KT P6SM BKN015
      TEMPO 0314/0317 BKN025
     FM031700 36008KT P6SM BKN050
     FM040000 VRB03KT P6SM BKN250=

USA.gov is the U.S. government's official web portal to all federal, state and local government web resources and services.